createdAt,value
2019-04-27T00:01:10.466Z,80.80
2019-04-27T00:03:44.837Z,80.80
2019-04-27T00:06:15.008Z,80.70
2019-04-27T00:08:49.620Z,80.70
2019-04-27T00:11:23.045Z,80.20
2019-04-27T00:13:53.584Z,80.40
2019-04-27T00:16:50.519Z,80.10
2019-04-27T00:19:36.538Z,79.70
2019-04-27T00:22:16.078Z,79.80
2019-04-27T00:24:44.950Z,80.00
2019-04-27T00:27:13.738Z,80.00
2019-04-27T00:29:43.276Z,80.30
2019-04-27T00:32:13.157Z,80.20
2019-04-27T00:34:43.135Z,80.30
2019-04-27T00:37:35.786Z,80.50
2019-04-27T00:40:15.525Z,80.70
2019-04-27T00:42:44.371Z,81.00
2019-04-27T00:45:13.984Z,81.00
2019-04-27T00:47:54.723Z,81.10
2019-04-27T00:50:14.344Z,81.50
2019-04-27T00:52:43.126Z,81.30
2019-04-27T00:55:13.277Z,81.40
2019-04-27T00:58:07.484Z,81.20
2019-04-27T01:00:53.873Z,81.10
2019-04-27T01:03:28.670Z,81.00
2019-04-27T01:05:57.702Z,80.80
2019-04-27T01:08:26.473Z,80.90
2019-04-27T01:10:55.263Z,81.10
2019-04-27T01:13:24.391Z,81.10
2019-04-27T01:15:54.124Z,80.90
2019-04-27T01:18:23.023Z,81.00
2019-04-27T01:20:51.999Z,80.90
2019-04-27T01:23:20.770Z,81.10
2019-04-27T01:26:11.656Z,81.20
2019-04-27T01:28:46.018Z,81.30
2019-04-27T01:31:15.070Z,81.50
2019-04-27T01:33:44.475Z,81.30
2019-04-27T01:36:13.507Z,81.30
2019-04-27T01:38:42.367Z,81.30
2019-04-27T01:41:11.158Z,81.10
2019-04-27T01:43:40.246Z,80.80
2019-04-27T01:46:09.382Z,80.60
2019-04-27T01:48:38.727Z,80.70
2019-04-27T01:51:09.228Z,80.70
2019-04-27T01:53:38.991Z,81.20
2019-04-27T01:56:09.232Z,81.30
2019-04-27T01:58:39.237Z,81.10
2019-04-27T02:01:28.711Z,81.00
2019-04-27T02:04:09.242Z,81.00
2019-04-27T02:06:38.617Z,81.10
2019-04-27T02:09:10.421Z,81.10
2019-04-27T02:11:39.288Z,80.60
2019-04-27T02:14:09.499Z,80.60
2019-04-27T02:16:39.230Z,80.80
2019-04-27T02:19:11.023Z,80.60
2019-04-27T02:21:39.274Z,80.90
2019-04-27T02:24:09.739Z,81.10
2019-04-27T02:26:39.850Z,81.00
2019-04-27T02:29:30.966Z,81.30
2019-04-27T02:32:20.307Z,81.10
2019-04-27T02:35:00.174Z,80.90
2019-04-27T02:37:30.387Z,81.20
2019-04-27T02:40:00.201Z,81.10
2019-04-27T02:42:33.976Z,81.30
2019-04-27T02:45:02.863Z,80.70
2019-04-27T02:47:31.972Z,80.60
2019-04-27T02:50:01.067Z,80.60
2019-04-27T02:52:40.297Z,80.00
2019-04-27T02:55:09.525Z,80.00
2019-04-27T02:57:39.928Z,80.30
2019-04-27T03:00:10.474Z,80.40
2019-04-27T03:02:43.893Z,80.50
2019-04-27T03:05:22.447Z,80.60
2019-04-27T03:07:51.220Z,80.50
2019-04-27T03:10:20.460Z,80.30
2019-04-27T03:12:55.732Z,80.30
2019-04-27T03:15:36.871Z,80.40
2019-04-27T03:18:13.550Z,80.70
2019-04-27T03:20:55.027Z,80.60
2019-04-27T03:23:23.878Z,80.40
2019-04-27T03:26:19.573Z,80.60
2019-04-27T03:28:50.285Z,80.60
2019-04-27T03:31:21.443Z,80.10
2019-04-27T03:33:54.823Z,80.00
2019-04-27T03:36:21.631Z,80.10
2019-04-27T03:38:50.698Z,80.00
2019-04-27T03:41:20.030Z,80.10
2019-04-27T03:43:50.310Z,79.90
2019-04-27T03:46:20.519Z,80.00
2019-04-27T03:48:50.412Z,79.90
2019-04-27T03:51:44.445Z,79.90
2019-04-27T03:54:31.901Z,79.80
2019-04-27T03:57:04.704Z,79.80
2019-04-27T03:59:56.118Z,79.90
2019-04-27T04:02:25.061Z,79.70
2019-04-27T04:04:53.906Z,79.30
2019-04-27T04:07:23.196Z,79.30
2019-04-27T04:09:52.034Z,79.50
2019-04-27T04:12:30.373Z,79.50
2019-04-27T04:15:00.007Z,79.50
2019-04-27T04:17:30.776Z,79.50
2019-04-27T04:20:01.931Z,79.40
2019-04-27T04:22:31.769Z,79.30
2019-04-27T04:25:00.927Z,79.20
2019-04-27T04:27:30.211Z,79.20
2019-04-27T04:29:59.565Z,79.20
2019-04-27T04:32:29.847Z,79.20
2019-04-27T04:35:20.742Z,79.60
2019-04-27T04:37:52.147Z,79.80
2019-04-27T04:40:23.169Z,79.30
2019-04-27T04:43:00.280Z,79.40
2019-04-27T04:45:50.106Z,80.00
2019-04-27T04:48:20.088Z,79.10
2019-04-27T04:50:50.059Z,79.20
2019-04-27T04:53:20.610Z,78.90
2019-04-27T04:55:50.060Z,78.60
2019-04-27T04:58:20.937Z,78.80
2019-04-27T05:00:50.174Z,78.70
2019-04-27T05:03:21.394Z,78.50
2019-04-27T05:05:50.241Z,78.60
2019-04-27T05:08:19.827Z,78.30
2019-04-27T05:10:49.669Z,79.10
2019-04-27T05:13:19.470Z,78.30
2019-04-27T05:15:48.779Z,78.60
2019-04-27T05:18:19.203Z,77.70
2019-04-27T05:21:13.246Z,77.40
2019-04-27T05:23:42.092Z,76.90
2019-04-27T05:26:10.939Z,77.00
2019-04-27T05:28:40.820Z,77.20
2019-04-27T05:31:09.675Z,76.60
2019-04-27T05:33:38.912Z,77.00
2019-04-27T05:36:09.146Z,77.10
2019-04-27T05:38:39.878Z,77.10
2019-04-27T05:41:09.709Z,76.60
2019-04-27T05:43:49.074Z,76.90
2019-04-27T05:46:49.346Z,76.50
2019-04-27T05:49:44.435Z,76.60
2019-04-27T05:52:29.355Z,76.80
2019-04-27T05:54:59.482Z,76.30
2019-04-27T05:57:31.422Z,76.60
2019-04-27T06:00:02.318Z,76.70
2019-04-27T06:02:30.934Z,76.80
2019-04-27T06:05:00.251Z,76.70
2019-04-27T06:07:29.649Z,76.50
2019-04-27T06:09:59.857Z,76.20
2019-04-27T06:12:29.763Z,76.00
2019-04-27T06:14:59.994Z,76.00
2019-04-27T06:17:48.505Z,75.80
2019-04-27T06:20:18.847Z,75.40
2019-04-27T06:22:48.920Z,75.50
2019-04-27T06:25:21.161Z,75.50
2019-04-27T06:27:49.554Z,75.10
2019-04-27T06:30:19.484Z,74.90
2019-04-27T06:32:49.482Z,75.20
2019-04-27T06:35:18.778Z,75.10
2019-04-27T06:37:49.288Z,75.20
2019-04-27T06:40:18.834Z,75.00
2019-04-27T06:42:48.644Z,75.10
2019-04-27T06:45:19.556Z,74.00
2019-04-27T06:47:48.839Z,73.60
2019-04-27T06:50:19.609Z,73.50
2019-04-27T06:52:49.075Z,73.00
2019-04-27T06:55:18.878Z,72.40
2019-04-27T06:57:49.099Z,72.00
2019-04-27T07:00:18.984Z,72.60
2019-04-27T07:02:49.297Z,72.70
2019-04-27T07:05:20.181Z,72.60
2019-04-27T07:07:49.299Z,72.20
2019-04-27T07:10:18.598Z,71.60
2019-04-27T07:12:49.078Z,71.10
2019-04-27T07:15:20.172Z,71.40
2019-04-27T07:17:49.306Z,70.80
2019-04-27T07:20:18.923Z,70.70
2019-04-27T07:22:49.532Z,71.30
2019-04-27T07:25:18.971Z,69.70
2019-04-27T07:27:49.368Z,69.40
2019-04-27T07:30:19.100Z,69.00
2019-04-27T07:32:48.880Z,69.10
2019-04-27T07:35:19.509Z,69.20
2019-04-27T07:37:48.980Z,69.30
2019-04-27T07:40:18.784Z,68.30
2019-04-27T07:42:50.868Z,67.90
2019-04-27T07:45:25.610Z,66.90
2019-04-27T07:47:54.896Z,67.00
2019-04-27T07:50:23.987Z,67.10
2019-04-27T07:52:53.131Z,68.30
2019-04-27T07:55:21.904Z,67.60
2019-04-27T07:57:51.034Z,66.70
2019-04-27T08:00:20.235Z,66.90
2019-04-27T08:02:49.078Z,66.60
2019-04-27T08:05:19.206Z,64.60
2019-04-27T08:07:49.179Z,64.80
2019-04-27T08:10:19.373Z,65.20
2019-04-27T08:12:49.827Z,65.80
2019-04-27T08:15:19.029Z,64.60
2019-04-27T08:17:49.277Z,64.50
2019-04-27T08:20:20.858Z,63.40
2019-04-27T08:22:49.681Z,64.10
2019-04-27T08:25:19.001Z,63.40
2019-04-27T08:28:00.499Z,64.40
2019-04-27T08:30:51.436Z,63.10
2019-04-27T08:33:20.812Z,63.10
2019-04-27T08:35:50.002Z,62.40
2019-04-27T08:38:20.604Z,63.00
2019-04-27T08:40:49.582Z,62.70
2019-04-27T08:43:19.117Z,62.80
2019-04-27T08:45:48.967Z,61.70
2019-04-27T08:48:31.467Z,61.10
2019-04-27T08:50:48.747Z,62.00
2019-04-27T08:53:18.610Z,59.90
2019-04-27T08:55:49.298Z,59.20
2019-04-27T08:58:21.082Z,58.40
2019-04-27T09:00:49.096Z,57.20
2019-04-27T09:03:19.338Z,57.50
2019-04-27T09:05:49.042Z,57.20
2019-04-27T09:08:22.874Z,56.60
2019-04-27T09:11:08.987Z,55.90
2019-04-27T09:13:53.327Z,57.70
2019-04-27T09:16:28.897Z,56.90
2019-04-27T09:19:01.588Z,56.50
2019-04-27T09:21:49.758Z,54.30
2019-04-27T09:24:18.803Z,55.00
2019-04-27T09:26:49.212Z,54.90
2019-04-27T09:29:19.743Z,53.70
2019-04-27T09:31:49.462Z,52.80
2019-04-27T09:34:18.955Z,52.20
2019-04-27T09:36:48.268Z,52.60
2019-04-27T09:39:17.071Z,53.10
2019-04-27T09:41:48.271Z,53.20
2019-04-27T09:44:16.979Z,53.50
2019-04-27T09:46:47.545Z,54.10
2019-04-27T09:49:16.743Z,53.50
2019-04-27T09:51:46.057Z,54.10
2019-04-27T09:54:15.933Z,54.50
2019-04-27T09:56:46.595Z,53.30
2019-04-27T09:59:16.013Z,51.00
2019-04-27T10:01:46.503Z,50.90
2019-04-27T10:04:17.460Z,51.80
2019-04-27T10:06:48.773Z,52.20
2019-04-27T10:09:17.620Z,52.60
2019-04-27T10:11:46.770Z,52.40
2019-04-27T10:14:16.371Z,51.70
2019-04-27T10:16:46.921Z,51.30
2019-04-27T10:19:28.248Z,50.40
2019-04-27T10:21:46.797Z,51.10
2019-04-27T10:24:15.713Z,50.80
2019-04-27T10:26:44.920Z,50.90
2019-04-27T10:29:14.009Z,51.80
2019-04-27T10:31:43.107Z,52.00
2019-04-27T10:34:11.887Z,52.50
2019-04-27T10:36:40.946Z,53.30
2019-04-27T10:39:13.298Z,52.40
2019-04-27T10:41:42.093Z,52.70
2019-04-27T10:44:11.547Z,54.30
2019-04-27T10:46:40.490Z,51.30
2019-04-27T10:49:09.703Z,52.10
2019-04-27T10:51:38.495Z,50.20
2019-04-27T10:54:08.055Z,49.70
2019-04-27T10:56:36.869Z,48.80
2019-04-27T10:59:09.467Z,48.60
2019-04-27T11:01:36.893Z,49.50
2019-04-27T11:04:20.983Z,50.10
2019-04-27T11:06:56.318Z,47.60
2019-04-27T11:09:25.734Z,49.80
2019-04-27T11:11:56.592Z,49.30
2019-04-27T11:14:26.176Z,48.60
2019-04-27T11:16:56.131Z,48.30
2019-04-27T11:19:26.761Z,49.10
2019-04-27T11:21:55.706Z,49.70
2019-04-27T11:24:24.900Z,50.70
2019-04-27T11:26:53.682Z,51.50
2019-04-27T11:29:23.090Z,51.30
2019-04-27T11:31:52.494Z,51.80
2019-04-27T11:34:23.255Z,52.30
2019-04-27T11:36:58.907Z,49.70
2019-04-27T11:39:28.495Z,49.20
2019-04-27T11:41:57.575Z,50.10
2019-04-27T11:44:26.799Z,48.10
2019-04-27T11:46:56.000Z,47.90
2019-04-27T11:49:25.771Z,48.50
2019-04-27T11:51:56.640Z,49.50
2019-04-27T11:54:27.424Z,47.50
2019-04-27T11:56:56.391Z,46.70
2019-04-27T11:59:27.036Z,47.10
2019-04-27T12:01:56.278Z,46.40
2019-04-27T12:04:26.286Z,45.80
2019-04-27T12:06:56.466Z,45.80
2019-04-27T12:09:25.723Z,45.30
2019-04-27T12:11:55.900Z,44.60
2019-04-27T12:14:25.139Z,44.40
2019-04-27T12:16:56.097Z,45.60
2019-04-27T12:19:26.704Z,46.60
2019-04-27T12:21:56.495Z,45.90
2019-04-27T12:24:26.712Z,45.50
2019-04-27T12:27:02.355Z,45.70
2019-04-27T12:29:50.939Z,46.80
2019-04-27T12:32:20.098Z,48.70
2019-04-27T12:34:48.871Z,48.90
2019-04-27T12:37:17.669Z,49.60
2019-04-27T12:39:46.454Z,50.50
2019-04-27T12:42:16.041Z,51.50
2019-04-27T12:44:45.515Z,52.30
2019-04-27T12:47:16.213Z,54.60
2019-04-27T12:49:45.279Z,56.20
2019-04-27T12:52:15.872Z,56.20
2019-04-27T12:54:51.011Z,56.40
2019-04-27T12:57:38.231Z,57.00
2019-04-27T13:00:22.792Z,57.40
2019-04-27T13:02:51.603Z,57.60
2019-04-27T13:05:20.520Z,58.50
2019-04-27T13:07:49.559Z,59.20
2019-04-27T13:10:18.474Z,58.80
2019-04-27T13:12:47.266Z,58.80
2019-04-27T13:15:17.258Z,58.90
2019-04-27T13:17:46.038Z,58.80
2019-04-27T13:20:16.454Z,58.80
2019-04-27T13:22:45.903Z,57.90
2019-04-27T13:25:15.378Z,57.10
2019-04-27T13:27:44.170Z,55.80
2019-04-27T13:30:13.488Z,55.10
2019-04-27T13:32:42.342Z,53.70
2019-04-27T13:35:11.392Z,54.10
2019-04-27T13:37:42.188Z,53.70
2019-04-27T13:40:13.966Z,54.10
2019-04-27T13:42:58.610Z,54.70
2019-04-27T13:45:50.123Z,55.00
2019-04-27T13:48:30.078Z,55.30
2019-04-27T13:51:00.518Z,55.10
2019-04-27T13:53:29.604Z,54.50
2019-04-27T13:56:00.427Z,55.70
2019-04-27T13:58:29.528Z,55.30
2019-04-27T14:00:58.611Z,55.40
2019-04-27T14:03:27.482Z,54.20
2019-04-27T14:05:56.919Z,53.80
2019-04-27T14:08:26.270Z,53.50
2019-04-27T14:10:55.043Z,52.70
2019-04-27T14:13:23.851Z,52.80
2019-04-27T14:15:53.091Z,52.70
2019-04-27T14:18:21.878Z,53.20
2019-04-27T14:20:50.918Z,54.00
2019-04-27T14:23:21.628Z,54.00
2019-04-27T14:25:50.706Z,54.80
2019-04-27T14:28:19.799Z,54.90
2019-04-27T14:30:48.895Z,55.70
2019-04-27T14:33:18.585Z,56.20
2019-04-27T14:35:49.885Z,58.30
2019-04-27T14:38:19.201Z,60.60
2019-04-27T14:40:50.406Z,63.40
2019-04-27T14:43:18.998Z,64.60
2019-04-27T14:45:48.648Z,66.30
2019-04-27T14:48:18.523Z,66.50
2019-04-27T14:50:48.562Z,66.10
2019-04-27T14:53:18.535Z,67.00
2019-04-27T14:55:48.994Z,67.70
2019-04-27T14:58:19.244Z,66.60
2019-04-27T15:00:49.835Z,67.90
2019-04-27T15:03:18.820Z,67.90
2019-04-27T15:05:49.683Z,69.60
2019-04-27T15:08:18.834Z,69.30
2019-04-27T15:10:48.346Z,69.20
2019-04-27T15:13:18.708Z,69.80
2019-04-27T15:15:47.727Z,69.40
2019-04-27T15:18:16.783Z,69.00
2019-04-27T15:20:46.711Z,68.80
2019-04-27T15:23:15.819Z,69.80
2019-04-27T15:25:47.052Z,70.40
2019-04-27T15:28:17.852Z,70.30
2019-04-27T15:31:22.357Z,70.30
2019-04-27T15:34:11.080Z,69.90
2019-04-27T15:37:03.176Z,70.40
2019-04-27T15:40:04.224Z,70.20
2019-04-27T15:42:41.654Z,70.40
2019-04-27T15:45:12.021Z,71.70
2019-04-27T15:47:42.524Z,71.80
2019-04-27T15:50:12.524Z,71.90
2019-04-27T15:52:41.442Z,72.50
2019-04-27T15:55:31.068Z,72.80
2019-04-27T15:57:42.637Z,72.20
2019-04-27T16:00:20.885Z,71.80
2019-04-27T16:02:49.359Z,72.10
2019-04-27T16:05:19.170Z,72.40
2019-04-27T16:07:48.165Z,73.60
2019-04-27T16:10:17.724Z,72.90
2019-04-27T16:13:05.764Z,72.80
2019-04-27T16:15:19.074Z,71.80
2019-04-27T16:17:53.309Z,72.30
2019-04-27T16:20:22.074Z,71.60
2019-04-27T16:22:49.758Z,72.00
2019-04-27T16:25:18.710Z,72.30
2019-04-27T16:27:48.997Z,71.30
2019-04-27T16:30:20.549Z,71.20
2019-04-27T16:32:49.060Z,72.50
2019-04-27T16:35:19.461Z,73.10
2019-04-27T16:38:00.144Z,73.80
2019-04-27T16:40:30.120Z,74.50
2019-04-27T16:42:59.050Z,74.50
2019-04-27T16:45:28.108Z,73.80
2019-04-27T16:47:59.448Z,74.10
2019-04-27T16:50:28.871Z,74.80
2019-04-27T16:53:00.953Z,75.40
2019-04-27T16:55:34.164Z,74.70
2019-04-27T16:57:59.981Z,73.80
2019-04-27T17:00:30.324Z,73.70
2019-04-27T17:03:02.728Z,74.80
2019-04-27T17:05:34.494Z,74.50
2019-04-27T17:08:00.930Z,75.20
2019-04-27T17:10:29.813Z,75.10
2019-04-27T17:12:59.130Z,74.40
2019-04-27T17:15:53.482Z,74.50
2019-04-27T17:18:33.719Z,74.30
2019-04-27T17:21:15.867Z,74.50
2019-04-27T17:23:33.393Z,74.20
2019-04-27T17:26:09.564Z,75.10
2019-04-27T17:28:39.302Z,75.20
2019-04-27T17:31:12.651Z,75.20
2019-04-27T17:33:44.594Z,75.00
2019-04-27T17:36:16.242Z,74.30
2019-04-27T17:38:47.323Z,74.10
2019-04-27T17:41:14.037Z,74.30
2019-04-27T17:43:43.010Z,75.00
2019-04-27T17:46:13.184Z,74.40
2019-04-27T17:48:42.426Z,74.50
2019-04-27T17:51:11.623Z,74.80
2019-04-27T17:53:40.415Z,74.80
2019-04-27T17:56:09.811Z,75.20
2019-04-27T17:58:39.649Z,75.40
2019-04-27T18:01:13.977Z,75.20
2019-04-27T18:03:41.591Z,76.50
2019-04-27T18:06:10.526Z,76.70
2019-04-27T18:08:40.346Z,76.60
2019-04-27T18:11:09.354Z,76.30
2019-04-27T18:13:38.773Z,75.80
2019-04-27T18:16:09.181Z,75.50
2019-04-27T18:18:51.419Z,75.50
2019-04-27T18:21:24.931Z,75.50
2019-04-27T18:23:58.288Z,75.60
2019-04-27T18:26:48.829Z,75.90
2019-04-27T18:29:09.003Z,76.00
2019-04-27T18:31:38.375Z,75.10
2019-04-27T18:34:09.929Z,75.20
2019-04-27T18:36:43.764Z,75.20
2019-04-27T18:39:12.224Z,75.20
2019-04-27T18:41:44.420Z,75.50
2019-04-27T18:44:11.233Z,75.60
2019-04-27T18:46:40.264Z,75.60
2019-04-27T18:49:30.649Z,75.90
2019-04-27T18:52:12.845Z,76.20
2019-04-27T18:54:42.271Z,75.80
2019-04-27T18:57:15.018Z,75.90
2019-04-27T18:59:41.589Z,76.40
2019-04-27T19:02:10.446Z,77.00
2019-04-27T19:04:39.230Z,77.30
2019-04-27T19:07:08.734Z,77.10
2019-04-27T19:09:37.774Z,77.10
2019-04-27T19:12:06.822Z,76.80
2019-04-27T19:14:35.590Z,77.00
2019-04-27T19:17:04.452Z,76.10
2019-04-27T19:19:33.214Z,76.10
2019-04-27T19:22:02.062Z,76.40
2019-04-27T19:24:31.070Z,75.80
2019-04-27T19:27:17.692Z,76.10
2019-04-27T19:29:53.134Z,76.40
2019-04-27T19:32:22.233Z,76.80
2019-04-27T19:34:50.994Z,77.10
2019-04-27T19:37:19.822Z,76.60
2019-04-27T19:39:49.832Z,77.10
2019-04-27T19:42:20.330Z,77.10
2019-04-27T19:44:49.427Z,77.10
2019-04-27T19:47:18.453Z,77.10
2019-04-27T19:49:47.937Z,76.80
2019-04-27T19:52:18.329Z,76.20
2019-04-27T19:54:49.311Z,76.70
2019-04-27T19:57:31.158Z,76.30
2019-04-27T19:59:53.032Z,76.60
2019-04-27T20:02:22.382Z,76.90
2019-04-27T20:04:58.498Z,77.00
2019-04-27T20:07:28.578Z,77.00
2019-04-27T20:09:59.666Z,77.20
2019-04-27T20:12:28.593Z,76.80
2019-04-27T20:14:57.631Z,77.40
2019-04-27T20:17:28.231Z,76.60
2019-04-27T20:19:57.850Z,76.90
2019-04-27T20:22:26.773Z,77.50
2019-04-27T20:24:55.660Z,78.40
2019-04-27T20:27:24.721Z,78.10
2019-04-27T20:29:53.665Z,78.30
2019-04-27T20:32:22.517Z,78.50
2019-04-27T20:34:51.863Z,78.20
2019-04-27T20:37:21.102Z,78.10
2019-04-27T20:39:51.451Z,77.70
2019-04-27T20:42:21.343Z,77.90
2019-04-27T20:44:51.636Z,77.30
2019-04-27T20:47:20.671Z,77.30
2019-04-27T20:49:49.598Z,76.90
2019-04-27T20:52:50.084Z,76.80
2019-04-27T20:55:19.048Z,76.40
2019-04-27T20:57:58.688Z,76.60
2019-04-27T21:00:21.952Z,76.30
2019-04-27T21:02:57.651Z,76.70
2019-04-27T21:05:37.490Z,77.30
2019-04-27T21:08:07.294Z,76.90
2019-04-27T21:10:36.046Z,77.50
2019-04-27T21:13:05.214Z,77.30
2019-04-27T21:15:34.399Z,77.50
2019-04-27T21:18:03.263Z,77.50
2019-04-27T21:20:32.182Z,77.40
2019-04-27T21:23:01.904Z,77.00
2019-04-27T21:25:31.509Z,77.40
2019-04-27T21:28:14.615Z,77.70
2019-04-27T21:30:32.928Z,77.80
2019-04-27T21:33:01.767Z,77.90
2019-04-27T21:35:30.550Z,77.50
2019-04-27T21:38:01.156Z,77.40
2019-04-27T21:40:30.703Z,77.70
2019-04-27T21:43:01.155Z,78.00
2019-04-27T21:45:31.747Z,77.80
2019-04-27T21:48:00.966Z,77.60
2019-04-27T21:50:31.469Z,77.70
2019-04-27T21:53:12.148Z,77.90
2019-04-27T21:55:42.223Z,78.00
2019-04-27T21:58:11.877Z,78.00
2019-04-27T22:01:03.284Z,78.00
2019-04-27T22:03:32.427Z,77.40
2019-04-27T22:06:01.838Z,78.00
2019-04-27T22:08:31.873Z,78.10
2019-04-27T22:11:01.501Z,78.40
2019-04-27T22:13:31.269Z,78.40
2019-04-27T22:16:00.228Z,78.40
2019-04-27T22:18:29.298Z,78.70
2019-04-27T22:21:01.312Z,78.80
2019-04-27T22:23:42.947Z,78.50
2019-04-27T22:26:11.744Z,78.20
2019-04-27T22:28:48.737Z,77.70
2019-04-27T22:31:12.586Z,77.90
2019-04-27T22:33:42.971Z,77.90
2019-04-27T22:36:11.968Z,77.60
2019-04-27T22:38:41.369Z,78.10
2019-04-27T22:41:26.090Z,77.80
2019-04-27T22:44:12.067Z,78.00
2019-04-27T22:46:42.594Z,77.90
2019-04-27T22:49:11.374Z,77.80
2019-04-27T22:51:41.152Z,78.60
2019-04-27T22:54:11.588Z,78.50
2019-04-27T22:56:42.369Z,78.20
2019-04-27T22:59:17.910Z,78.00
2019-04-27T23:02:24.566Z,78.70
2019-04-27T23:05:01.676Z,79.30
2019-04-27T23:07:31.550Z,79.50
2019-04-27T23:10:01.613Z,79.40
2019-04-27T23:12:31.676Z,79.30
2019-04-27T23:15:01.128Z,79.10
2019-04-27T23:17:44.826Z,78.90
2019-04-27T23:20:13.982Z,78.70
2019-04-27T23:22:42.751Z,78.50
2019-04-27T23:25:12.020Z,78.50
2019-04-27T23:27:41.158Z,78.70
2019-04-27T23:30:11.405Z,78.20
2019-04-27T23:32:43.462Z,78.00
2019-04-27T23:35:12.909Z,78.50
2019-04-27T23:37:41.758Z,78.60
2019-04-27T23:40:11.279Z,78.70
2019-04-27T23:42:41.665Z,78.50
2019-04-27T23:45:10.791Z,79.00
2019-04-27T23:47:39.655Z,79.00
2019-04-27T23:50:10.823Z,78.90
2019-04-27T23:52:57.923Z,78.80
2019-04-27T23:55:30.976Z,79.10
2019-04-27T23:58:00.271Z,79.00
